Time;durP1;ratioP1;P1;durP2;ratioP2;P2;SDS_P1;SDS_P2;PMS_P1;PMS_P2;Temp;Humidity;BMP_temperature;BMP_pressure;BME280_temperature;BME280_humidity;BME280_pressure;Samples;Min_cycle;Max_cycle;Signal;HPM_P1;HPM_P2
2022/04/29 00:01:22;;;;;;;13.80;4.03;;;8.20;99.90;;;;;;5054364;28;20025;-75
2022/04/29 00:03:48;;;;;;;5.85;2.83;;;8.20;99.90;;;;;;5054186;28;20052;-75
2022/04/29 00:06:15;;;;;;;11.10;3.50;;;8.20;99.90;;;;;;5036204;28;20037;-75
2022/04/29 00:08:43;;;;;;;9.15;3.78;;;8.20;99.90;;;;;;5040065;28;20063;-75
2022/04/29 00:11:09;;;;;;;10.73;3.03;;;8.10;99.90;;;;;;5053821;28;20029;-75
2022/04/29 00:13:36;;;;;;;8.52;3.47;;;8.10;99.90;;;;;;5054334;28;20389;-75
2022/04/29 00:16:03;;;;;;;9.82;3.25;;;8.00;99.90;;;;;;5053648;28;20459;-75
2022/04/29 00:18:32;;;;;;;6.97;2.92;;;8.00;99.90;;;;;;5053849;28;20067;-75
2022/04/29 00:20:58;;;;;;;15.18;3.92;;;7.90;99.90;;;;;;5053224;28;20053;-75
2022/04/29 00:23:23;;;;;;;10.40;3.88;;;7.90;99.90;;;;;;5053451;28;20331;-76
2022/04/29 00:25:49;;;;;;;11.60;4.13;;;7.90;99.90;;;;;;5053436;28;20104;-76
2022/04/29 00:28:15;;;;;;;9.88;3.55;;;7.80;99.90;;;;;;5053925;28;20492;-75
2022/04/29 00:30:41;;;;;;;11.43;3.60;;;7.70;99.90;;;;;;5053552;28;20029;-75
2022/04/29 00:33:06;;;;;;;9.85;3.35;;;7.70;99.90;;;;;;5038081;28;20030;-75
2022/04/29 00:35:32;;;;;;;9.02;4.00;;;7.70;99.90;;;;;;5053613;28;20025;-75
2022/04/29 00:37:58;;;;;;;11.65;4.55;;;7.60;99.90;;;;;;5053344;28;20075;-75
2022/04/29 00:40:29;;;;;;;12.13;4.13;;;7.50;99.90;;;;;;5053321;28;20028;-75
2022/04/29 00:42:55;;;;;;;14.45;4.25;;;7.50;99.90;;;;;;5053251;28;20095;-75
2022/04/29 00:45:23;;;;;;;13.75;5.00;;;7.40;99.90;;;;;;5051775;28;20119;-76
2022/04/29 00:47:50;;;;;;;11.20;4.28;;;7.40;99.90;;;;;;5052708;28;20040;-76
2022/04/29 00:50:26;;;;;;;9.77;3.75;;;7.40;99.90;;;;;;5053823;28;20029;-75
2022/04/29 00:52:53;;;;;;;12.63;5.20;;;7.30;99.90;;;;;;5053083;28;20028;-75
2022/04/29 00:55:21;;;;;;;13.95;5.03;;;7.30;99.90;;;;;;5053200;28;20032;-76
2022/04/29 00:58:06;;;;;;;10.63;4.72;;;7.30;99.90;;;;;;5053369;28;20031;-76
2022/04/29 01:00:32;;;;;;;13.13;4.50;;;7.30;99.90;;;;;;5052825;28;20032;-75
2022/04/29 01:03:00;;;;;;;15.55;5.05;;;7.20;99.90;;;;;;5049805;28;20020;-75
2022/04/29 01:05:26;;;;;;;12.95;5.10;;;7.20;99.90;;;;;;5053165;28;20426;-75
2022/04/29 01:07:52;;;;;;;10.40;4.90;;;7.20;99.90;;;;;;5052813;28;20063;-76
2022/04/29 01:10:20;;;;;;;13.60;5.15;;;7.20;99.90;;;;;;5052829;28;20032;-76
2022/04/29 01:12:56;;;;;;;10.30;5.22;;;7.20;99.90;;;;;;5052687;28;20053;-75
2022/04/29 01:15:22;;;;;;;13.25;6.20;;;7.20;99.90;;;;;;5051733;28;20419;-75
2022/04/29 01:17:50;;;;;;;11.93;6.32;;;7.20;99.90;;;;;;5034915;28;20087;-76
2022/04/29 01:20:18;;;;;;;14.85;6.35;;;7.20;99.90;;;;;;5052478;28;20499;-76
2022/04/29 01:22:44;;;;;;;12.13;5.57;;;7.20;99.90;;;;;;5052574;28;20138;-76
2022/04/29 01:25:11;;;;;;;13.02;5.70;;;7.20;99.90;;;;;;5052731;28;20025;-76
2022/04/29 01:27:37;;;;;;;15.68;6.40;;;7.30;99.90;;;;;;5052848;28;20037;-75
2022/04/29 01:30:06;;;;;;;9.00;5.30;;;7.20;99.90;;;;;;5051408;28;20040;-75
2022/04/29 01:32:33;;;;;;;8.75;6.00;;;7.20;99.90;;;;;;5052481;28;20105;-76
2022/04/29 01:35:00;;;;;;;13.35;7.30;;;7.20;99.90;;;;;;5051898;28;20028;-76
2022/04/29 01:37:25;;;;;;;11.00;6.55;;;7.10;99.90;;;;;;5052969;28;20063;-76
2022/04/29 01:39:51;;;;;;;14.27;7.03;;;7.10;99.90;;;;;;5052196;28;20449;-76
2022/04/29 01:42:17;;;;;;;11.23;7.38;;;7.10;99.90;;;;;;5052508;28;20563;-76
2022/04/29 01:44:43;;;;;;;18.15;6.93;;;7.10;99.90;;;;;;5043829;28;20109;-76
2022/04/29 01:47:08;;;;;;;14.20;7.13;;;7.10;99.90;;;;;;5051943;28;20041;-75
2022/04/29 01:49:34;;;;;;;12.60;7.40;;;7.10;99.90;;;;;;5052406;28;20021;-75
2022/04/29 01:52:00;;;;;;;19.85;7.90;;;7.10;99.90;;;;;;5051740;28;20036;-75
2022/04/29 01:54:25;;;;;;;11.77;6.75;;;7.10;99.90;;;;;;5052334;28;20100;-75
2022/04/29 01:56:52;;;;;;;15.40;7.90;;;7.10;99.90;;;;;;5051722;28;20100;-76
2022/04/29 01:59:19;;;;;;;11.35;7.20;;;7.10;99.90;;;;;;5051552;28;20028;-75
2022/04/29 02:01:46;;;;;;;21.13;7.57;;;7.10;99.90;;;;;;5052041;28;20432;-76
2022/04/29 02:04:13;;;;;;;13.63;8.13;;;7.10;99.90;;;;;;5052177;28;20025;-76
2022/04/29 02:06:38;;;;;;;16.25;7.53;;;7.10;99.90;;;;;;5051509;28;20033;-75
2022/04/29 02:09:08;;;;;;;16.13;7.95;;;7.00;99.90;;;;;;5051898;28;20100;-76
2022/04/29 02:11:36;;;;;;;16.85;7.85;;;7.00;99.90;;;;;;5051905;28;20025;-75
2022/04/29 02:14:02;;;;;;;16.58;8.80;;;7.00;99.90;;;;;;5050109;28;20025;-76
2022/04/29 02:16:28;;;;;;;17.52;8.30;;;7.00;99.90;;;;;;5051863;28;20402;-76
2022/04/29 02:18:53;;;;;;;15.93;8.45;;;6.90;99.90;;;;;;5051383;28;20033;-75
2022/04/29 02:21:19;;;;;;;16.63;8.75;;;6.90;99.90;;;;;;5051454;28;20485;-75
2022/04/29 02:23:45;;;;;;;15.88;7.93;;;6.90;99.90;;;;;;5051224;28;20058;-76
2022/04/29 02:26:10;;;;;;;17.38;8.68;;;6.90;99.90;;;;;;5051565;28;20060;-76
2022/04/29 02:28:36;;;;;;;21.25;9.73;;;6.90;99.90;;;;;;5051105;28;20021;-75
2022/04/29 02:31:02;;;;;;;15.90;8.48;;;6.90;99.90;;;;;;5051288;28;20025;-76
2022/04/29 02:33:28;;;;;;;16.70;8.75;;;6.80;99.90;;;;;;5051381;28;20021;-76
2022/04/29 02:35:54;;;;;;;16.00;9.30;;;6.90;99.90;;;;;;5051320;28;20032;-76
2022/04/29 02:38:19;;;;;;;20.08;9.55;;;6.80;99.90;;;;;;5051403;28;20025;-76
2022/04/29 02:40:45;;;;;;;14.93;9.15;;;6.90;99.90;;;;;;5051567;28;20064;-76
2022/04/29 02:43:11;;;;;;;15.80;8.10;;;6.80;99.90;;;;;;5023092;28;20025;-76
2022/04/29 02:45:37;;;;;;;21.02;9.77;;;6.80;99.90;;;;;;5037423;28;20036;-75
2022/04/29 02:48:04;;;;;;;13.68;8.68;;;6.80;99.90;;;;;;5051233;28;20028;-75
2022/04/29 02:50:30;;;;;;;17.00;8.98;;;6.70;99.90;;;;;;5051344;28;20108;-76
2022/04/29 02:52:55;;;;;;;22.85;10.30;;;6.70;99.90;;;;;;5050909;28;20117;-75
2022/04/29 02:55:21;;;;;;;20.65;9.77;;;6.80;99.90;;;;;;5051111;28;20033;-76
2022/04/29 02:57:46;;;;;;;17.58;9.88;;;6.70;99.90;;;;;;5042411;28;20044;-76
2022/04/29 03:00:12;;;;;;;18.85;10.23;;;6.70;99.90;;;;;;5041913;28;20384;-75
2022/04/29 03:02:38;;;;;;;17.70;10.40;;;6.70;99.90;;;;;;5051276;28;20043;-75
2022/04/29 03:05:07;;;;;;;22.85;10.10;;;6.70;99.90;;;;;;5051145;28;20067;-75
2022/04/29 03:07:35;;;;;;;19.08;9.55;;;6.70;99.90;;;;;;5051237;28;20095;-76
2022/04/29 03:10:01;;;;;;;21.77;10.57;;;6.60;99.90;;;;;;5050494;28;20559;-76
2022/04/29 03:12:27;;;;;;;18.40;9.82;;;6.70;99.90;;;;;;5050998;28;20033;-75
2022/04/29 03:14:54;;;;;;;20.15;10.82;;;6.60;99.90;;;;;;5050671;28;20032;-75
2022/04/29 03:20:22;;;;;;;13.10;8.80;;;6.60;99.90;;;;;;5050841;28;20056;-76
2022/04/29 03:22:48;;;;;;;20.58;11.10;;;6.60;99.90;;;;;;5050632;28;20037;-76
2022/04/29 03:25:13;;;;;;;18.58;9.60;;;6.60;99.90;;;;;;5050120;28;20063;-75
2022/04/29 03:27:39;;;;;;;16.75;9.88;;;6.50;99.90;;;;;;5054666;28;20025;-76
2022/04/29 03:30:05;;;;;;;21.00;10.90;;;6.50;99.90;;;;;;5055055;28;20396;-76
2022/04/29 03:32:30;;;;;;;19.10;10.00;;;6.50;99.90;;;;;;5054970;28;20480;-75
2022/04/29 03:34:56;;;;;;;21.60;11.73;;;6.50;99.90;;;;;;5036430;28;20029;-76
2022/04/29 03:37:21;;;;;;;19.65;10.52;;;6.50;99.90;;;;;;5055054;28;20032;-76
2022/04/29 03:39:47;;;;;;;24.35;11.32;;;6.50;99.90;;;;;;5053804;28;20447;-76
2022/04/29 03:42:13;;;;;;;22.52;10.88;;;6.50;99.90;;;;;;5054345;28;20107;-76
2022/04/29 03:44:38;;;;;;;22.00;11.20;;;6.50;99.90;;;;;;5054746;28;20112;-76
2022/04/29 03:47:04;;;;;;;22.95;10.90;;;6.40;99.90;;;;;;5054426;28;20174;-75
2022/04/29 03:49:35;;;;;;;23.27;11.18;;;6.40;99.90;;;;;;5054741;28;20118;-76
2022/04/29 03:52:01;;;;;;;20.55;11.05;;;6.40;99.90;;;;;;5036404;28;20370;-76
2022/04/29 03:54:27;;;;;;;21.30;10.23;;;6.40;99.90;;;;;;5050439;28;20032;-75
2022/04/29 03:56:52;;;;;;;24.70;12.15;;;6.40;99.90;;;;;;5051439;28;20384;-75
2022/04/29 03:59:18;;;;;;;26.48;11.07;;;6.40;99.90;;;;;;5054627;28;20075;-75
2022/04/29 04:01:45;;;;;;;24.15;11.70;;;6.40;99.90;;;;;;5054062;28;20072;-76
2022/04/29 04:04:11;;;;;;;18.33;11.32;;;6.40;99.90;;;;;;5054460;28;20025;-75
2022/04/29 04:06:51;;;;;;;20.65;10.60;;;6.50;99.90;;;;;;5054383;28;20033;-75
2022/04/29 04:09:22;;;;;;;21.20;12.00;;;6.50;99.90;;;;;;5054255;28;20055;-75
2022/04/29 04:11:48;;;;;;;22.67;10.43;;;6.50;99.90;;;;;;5053911;28;20092;-76
2022/04/29 04:14:15;;;;;;;23.55;11.55;;;6.50;99.90;;;;;;5054182;28;20025;-75
2022/04/29 04:16:40;;;;;;;21.58;11.55;;;6.50;99.90;;;;;;5053853;28;20040;-76
2022/04/29 04:19:06;;;;;;;21.10;11.02;;;6.50;99.90;;;;;;5054072;28;20218;-75
2022/04/29 04:21:32;;;;;;;22.88;11.00;;;6.50;99.90;;;;;;5054116;28;20052;-75
2022/04/29 04:23:58;;;;;;;24.75;11.15;;;6.50;99.90;;;;;;5052245;28;20426;-75
2022/04/29 04:26:23;;;;;;;16.88;10.52;;;6.50;99.90;;;;;;5053720;28;20037;-76
2022/04/29 04:28:49;;;;;;;20.38;9.77;;;6.50;99.90;;;;;;5053580;28;20420;-75
2022/04/29 04:31:15;;;;;;;20.90;10.75;;;6.50;99.90;;;;;;5054072;28;20072;-75
2022/04/29 04:33:40;;;;;;;21.67;10.85;;;6.50;99.90;;;;;;5053326;28;20393;-76
2022/04/29 04:36:06;;;;;;;25.63;11.82;;;6.50;99.90;;;;;;5053559;28;20107;-75
2022/04/29 04:38:32;;;;;;;20.83;10.85;;;6.50;99.90;;;;;;5045383;28;20040;-75
2022/04/29 04:40:58;;;;;;;19.30;10.75;;;6.50;99.90;;;;;;5040879;28;20045;-75
2022/04/29 04:43:24;;;;;;;21.65;10.70;;;6.50;99.90;;;;;;5051322;28;20057;-76
2022/04/29 04:45:51;;;;;;;23.60;11.02;;;6.50;99.90;;;;;;5052743;28;20033;-75
2022/04/29 04:48:16;;;;;;;17.20;10.80;;;6.60;99.90;;;;;;5053655;28;20029;-76
2022/04/29 04:50:44;;;;;;;19.48;9.75;;;6.50;99.90;;;;;;5052586;28;20027;-75
2022/04/29 04:53:10;;;;;;;19.83;10.10;;;6.50;99.90;;;;;;5037449;28;20144;-75
2022/04/29 04:55:39;;;;;;;27.63;11.65;;;6.60;99.90;;;;;;5034041;28;20144;-75
2022/04/29 04:58:05;;;;;;;24.48;10.82;;;6.60;99.90;;;;;;5041128;28;20108;-76
2022/04/29 05:00:31;;;;;;;18.73;11.10;;;6.60;99.90;;;;;;5053326;28;20412;-75
2022/04/29 05:02:57;;;;;;;19.67;10.27;;;6.60;99.90;;;;;;5052585;28;20032;-75
2022/04/29 05:05:22;;;;;;;23.05;11.57;;;6.60;99.90;;;;;;5052784;28;20116;-75
2022/04/29 05:07:48;;;;;;;21.15;10.88;;;6.60;99.90;;;;;;5049378;28;20033;-75
2022/04/29 05:10:14;;;;;;;25.48;11.10;;;6.60;99.90;;;;;;5051518;28;20029;-76
2022/04/29 05:12:45;;;;;;;24.63;10.35;;;6.70;99.90;;;;;;5052552;28;20064;-75
2022/04/29 05:15:12;;;;;;;19.23;10.60;;;6.70;99.90;;;;;;5052886;28;20025;-76
2022/04/29 05:17:40;;;;;;;21.65;11.25;;;6.70;99.90;;;;;;5053113;28;20396;-75
2022/04/29 05:20:08;;;;;;;24.65;11.25;;;6.70;99.90;;;;;;5042236;28;20049;-75
2022/04/29 05:22:34;;;;;;;22.92;9.60;;;6.70;99.90;;;;;;5044491;28;20029;-75
2022/04/29 05:25:00;;;;;;;27.75;12.13;;;6.70;99.90;;;;;;5052355;28;20032;-75
2022/04/29 05:27:25;;;;;;;15.82;9.13;;;6.80;99.90;;;;;;5052973;28;20029;-75
2022/04/29 05:29:51;;;;;;;27.95;10.75;;;6.80;99.90;;;;;;5052356;28;20021;-76
2022/04/29 05:32:17;;;;;;;19.25;10.88;;;6.80;99.90;;;;;;5052560;28;20025;-75
2022/04/29 05:34:43;;;;;;;25.55;11.38;;;6.80;99.90;;;;;;5033428;28;20032;-75
2022/04/29 05:37:09;;;;;;;22.30;9.57;;;6.80;99.90;;;;;;5052485;28;20021;-75
2022/04/29 05:42:21;;;;;;;24.83;10.63;;;6.90;99.90;;;;;;5052207;28;20035;-76
2022/04/29 05:44:46;;;;;;;30.60;11.70;;;6.90;99.90;;;;;;5052068;28;20393;-76
2022/04/29 05:47:12;;;;;;;15.38;8.45;;;6.90;99.90;;;;;;5051939;28;20041;-75
2022/04/29 05:49:38;;;;;;;26.48;10.18;;;7.00;99.90;;;;;;5052193;28;20447;-75
2022/04/29 05:52:05;;;;;;;20.58;10.77;;;7.00;99.90;;;;;;5051147;28;20540;-76
2022/04/29 05:54:32;;;;;;;25.67;11.18;;;7.10;99.90;;;;;;5046949;28;20482;-75
2022/04/29 05:56:58;;;;;;;25.85;10.68;;;7.10;99.90;;;;;;5048395;28;20029;-76
2022/04/29 05:59:24;;;;;;;20.02;9.98;;;7.20;99.90;;;;;;5052251;28;20029;-75
2022/04/29 06:01:49;;;;;;;25.27;10.93;;;7.20;99.90;;;;;;5051787;28;20029;-75
2022/04/29 06:04:15;;;;;;;14.68;8.68;;;7.20;99.90;;;;;;5051793;28;20389;-76
2022/04/29 06:06:40;;;;;;;20.73;10.10;;;7.30;99.90;;;;;;5049438;28;20033;-75
2022/04/29 06:09:06;;;;;;;21.15;9.98;;;7.30;99.90;;;;;;5032038;28;20445;-75
2022/04/29 06:11:31;;;;;;;16.23;9.15;;;7.40;99.90;;;;;;5048215;28;20033;-76
2022/04/29 06:13:57;;;;;;;23.55;11.02;;;7.40;99.90;;;;;;5051481;28;20053;-76
2022/04/29 06:16:22;;;;;;;22.45;10.18;;;7.40;99.90;;;;;;5050540;28;20095;-75
2022/04/29 06:18:48;;;;;;;18.25;9.13;;;7.50;99.90;;;;;;5050909;28;20503;-75
2022/04/29 06:21:16;;;;;;;31.73;10.10;;;7.50;99.90;;;;;;5051541;28;20037;-75
2022/04/29 06:23:42;;;;;;;15.40;8.80;;;7.60;99.90;;;;;;5051665;28;20059;-75
2022/04/29 06:26:08;;;;;;;23.80;10.68;;;7.60;99.90;;;;;;5051590;28;20033;-76
2022/04/29 06:28:35;;;;;;;21.08;10.35;;;7.70;99.90;;;;;;5051872;28;20044;-75
2022/04/29 06:31:01;;;;;;;35.10;10.90;;;7.70;99.90;;;;;;5050477;28;20115;-75
2022/04/29 06:33:30;;;;;;;21.98;10.18;;;7.70;99.90;;;;;;5050125;28;20031;-75
2022/04/29 06:35:56;;;;;;;20.45;9.68;;;7.80;99.90;;;;;;5033432;28;20033;-75
2022/04/29 06:38:21;;;;;;;23.80;10.88;;;7.90;99.90;;;;;;5051126;28;20072;-76
2022/04/29 06:40:47;;;;;;;23.10;10.57;;;7.90;99.90;;;;;;5051192;28;20075;-76
2022/04/29 06:43:12;;;;;;;18.70;9.93;;;8.00;99.90;;;;;;5051389;28;20032;-76
2022/04/29 06:45:41;;;;;;;18.83;9.18;;;8.10;99.90;;;;;;5035181;28;20117;-75
2022/04/29 06:48:07;;;;;;;19.77;10.35;;;8.20;99.90;;;;;;5032000;28;20500;-76
2022/04/29 06:50:32;;;;;;;26.30;10.55;;;8.20;99.90;;;;;;5039060;28;20025;-75
2022/04/29 06:52:58;;;;;;;21.20;10.88;;;8.30;99.90;;;;;;5050423;28;20345;-76
2022/04/29 06:55:23;;;;;;;20.98;9.25;;;8.30;99.90;;;;;;5051152;28;20086;-75
2022/04/29 06:57:49;;;;;;;16.40;9.07;;;8.40;99.90;;;;;;5050902;28;20033;-75
2022/04/29 07:00:15;;;;;;;19.95;9.30;;;8.40;99.90;;;;;;5046415;28;20029;-75
2022/04/29 07:02:41;;;;;;;22.77;10.13;;;8.40;99.90;;;;;;5050986;28;20029;-76
2022/04/29 07:05:07;;;;;;;23.23;9.88;;;8.50;99.90;;;;;;5050695;28;20036;-75
2022/04/29 07:07:33;;;;;;;24.13;10.43;;;8.50;99.90;;;;;;5051286;28;20033;-75
2022/04/29 07:09:58;;;;;;;19.15;8.73;;;8.50;99.90;;;;;;5032861;28;20417;-75
2022/04/29 07:12:24;;;;;;;23.20;10.82;;;8.60;99.90;;;;;;5051106;28;20029;-76
2022/04/29 07:14:55;;;;;;;18.08;9.55;;;8.70;99.90;;;;;;5047293;28;20477;-76
2022/04/29 07:17:21;;;;;;;14.05;8.05;;;8.80;99.90;;;;;;5050950;28;20032;-76
2022/04/29 07:19:47;;;;;;;18.35;9.15;;;8.80;99.90;;;;;;5050756;28;20041;-76
2022/04/29 07:22:12;;;;;;;17.63;9.13;;;8.90;99.90;;;;;;5051022;28;20075;-76
2022/04/29 07:24:38;;;;;;;18.63;9.60;;;9.10;99.90;;;;;;5051000;28;20033;-75
2022/04/29 07:27:05;;;;;;;26.20;10.85;;;9.20;99.90;;;;;;5050885;28;20037;-75
2022/04/29 07:29:31;;;;;;;16.70;8.75;;;9.30;99.90;;;;;;5050487;28;20025;-75
2022/04/29 07:31:59;;;;;;;25.23;10.05;;;9.40;99.90;;;;;;5032875;28;20036;-76
2022/04/29 07:41:44;;;;;;;21.98;9.93;;;9.50;99.90;;;;;;5050717;28;20025;-76
2022/04/29 07:42:38;;;;;;;19.75;10.15;;;9.70;99.90;;;;;;5050521;28;20075;-75
2022/04/29 07:45:04;;;;;;;18.60;9.02;;;9.80;99.90;;;;;;5050397;28;20036;-76
2022/04/29 07:47:30;;;;;;;22.90;9.90;;;9.90;99.90;;;;;;5050733;28;20036;-76
2022/04/29 07:49:55;;;;;;;19.13;9.80;;;10.00;99.90;;;;;;5050660;28;20025;-76
2022/04/29 07:52:21;;;;;;;15.13;9.18;;;10.00;99.90;;;;;;5050765;28;20021;-75
2022/04/29 07:54:47;;;;;;;18.30;8.77;;;10.20;99.90;;;;;;5050114;28;20033;-75
2022/04/29 07:57:12;;;;;;;19.02;9.70;;;10.30;99.90;;;;;;5050586;28;20033;-76
2022/04/29 07:59:38;;;;;;;16.20;8.50;;;10.30;99.90;;;;;;5050795;28;20033;-76
2022/04/29 08:02:04;;;;;;;15.15;8.20;;;10.40;99.90;;;;;;5050604;28;20033;-76
2022/04/29 08:04:29;;;;;;;19.40;8.95;;;10.50;99.90;;;;;;5050428;28;20028;-76
2022/04/29 08:06:55;;;;;;;17.35;9.30;;;10.50;99.90;;;;;;5050193;28;20041;-76
2022/04/29 08:09:20;;;;;;;17.73;9.32;;;10.60;99.90;;;;;;5050684;28;20029;-75
2022/04/29 08:11:46;;;;;;;16.58;9.05;;;10.70;99.90;;;;;;5032583;28;20036;-75
2022/04/29 08:14:11;;;;;;;14.75;8.75;;;10.70;99.90;;;;;;5054167;28;20036;-75
2022/04/29 08:16:37;;;;;;;15.65;8.23;;;10.80;99.90;;;;;;5054200;28;20457;-76
2022/04/29 08:19:03;;;;;;;21.98;9.55;;;10.90;99.90;;;;;;5053522;28;20025;-76
2022/04/29 08:21:29;;;;;;;17.02;8.38;;;10.90;99.90;;;;;;5053847;28;20535;-76
2022/04/29 08:23:54;;;;;;;20.23;8.70;;;11.00;99.90;;;;;;5053318;28;20033;-76
2022/04/29 08:26:20;;;;;;;21.98;8.43;;;11.10;99.90;;;;;;5049589;28;20068;-76
2022/04/29 08:28:45;;;;;;;17.88;8.25;;;11.30;99.90;;;;;;5053421;28;20524;-76
2022/04/29 08:31:11;;;;;;;17.02;7.90;;;11.40;99.90;;;;;;5054151;28;20021;-76
2022/04/29 08:33:36;;;;;;;16.65;7.63;;;11.40;99.90;;;;;;5053783;28;20063;-75
2022/04/29 08:36:03;;;;;;;12.48;7.60;;;11.40;99.90;;;;;;5053709;28;20033;-76
2022/04/29 08:38:28;;;;;;;15.50;7.85;;;11.50;99.90;;;;;;5053811;28;20025;-76
2022/04/29 08:40:59;;;;;;;16.08;8.30;;;11.60;99.90;;;;;;5045704;28;20094;-76
2022/04/29 08:43:26;;;;;;;12.82;7.18;;;11.60;99.90;;;;;;5053703;28;20465;-76
2022/04/29 08:45:52;;;;;;;14.32;6.18;;;11.50;99.90;;;;;;5052803;28;20072;-76
2022/04/29 08:48:18;;;;;;;13.23;6.90;;;11.60;99.90;;;;;;5053536;28;20440;-76
2022/04/29 08:50:44;;;;;;;16.40;6.40;;;11.60;99.90;;;;;;5053366;28;20060;-76
2022/04/29 08:53:10;;;;;;;12.88;6.47;;;11.70;99.90;;;;;;5053434;28;20053;-76
2022/04/29 08:58:39;;;;;;;15.38;6.80;;;11.80;99.90;;;;;;5053409;28;20441;-76
2022/04/29 09:01:10;;;;;;;16.85;6.53;;;12.00;99.90;;;;;;5053261;28;20031;-76
2022/04/29 09:03:37;;;;;;;14.85;6.82;;;12.00;99.90;;;;;;5053271;28;20427;-75
2022/04/29 09:06:06;;;;;;;13.40;6.88;;;11.90;99.90;;;;;;5052795;28;20036;-76
2022/04/29 09:08:42;;;;;;;14.65;5.88;;;12.00;99.90;;;;;;5053268;28;20495;-76
2022/04/29 09:11:09;;;;;;;12.20;6.20;;;12.10;99.90;;;;;;5034187;28;20034;-76
2022/04/29 09:13:39;;;;;;;18.23;6.85;;;12.30;99.90;;;;;;5045238;28;20096;-76
2022/04/29 09:16:10;;;;;;;15.18;6.68;;;12.30;99.90;;;;;;5052832;28;20028;-76
2022/04/29 09:18:52;;;;;;;12.13;6.40;;;12.40;99.90;;;;;;5053270;28;20056;-76
2022/04/29 09:21:26;;;;;;;13.02;6.40;;;12.40;99.90;;;;;;5052718;28;20049;-76
2022/04/29 09:23:56;;;;;;;15.10;6.18;;;12.50;99.90;;;;;;5050212;28;20389;-76
2022/04/29 09:26:29;;;;;;;17.65;7.22;;;12.60;99.90;;;;;;5050666;28;20044;-76
2022/04/29 09:29:10;;;;;;;13.85;6.18;;;12.60;99.90;;;;;;5052068;28;20373;-76
2022/04/29 09:32:07;;;;;;;12.48;5.35;;;12.70;99.90;;;;;;5053010;28;20032;-76
2022/04/29 09:34:53;;;;;;;15.50;6.10;;;12.80;99.90;;;;;;5040182;28;20107;-76
2022/04/29 09:37:25;;;;;;;14.40;5.47;;;13.00;99.90;;;;;;5052792;28;20063;-76
2022/04/29 09:40:02;;;;;;;10.82;5.40;;;13.10;99.90;;;;;;5051839;28;20043;-76
2022/04/29 09:42:38;;;;;;;14.63;6.47;;;13.20;99.90;;;;;;5052451;28;20028;-76
2022/04/29 09:45:17;;;;;;;9.55;4.43;;;13.30;99.60;;;;;;5052764;28;20424;-76
2022/04/29 09:47:43;;;;;;;13.48;4.95;;;13.30;98.70;;;;;;5051693;28;20439;-76
2022/04/29 09:50:09;;;;;;;10.95;4.32;;;13.40;98.40;;;;;;5052439;28;20521;-76
2022/04/29 09:52:39;;;;;;;12.68;4.25;;;13.50;98.10;;;;;;5052348;28;20402;-76
2022/04/29 09:55:18;;;;;;;8.55;4.03;;;13.60;98.00;;;;;;5036111;28;20512;-76
2022/04/29 09:57:52;;;;;;;11.93;4.30;;;13.60;97.00;;;;;;5038519;28;20032;-76
2022/04/29 10:00:18;;;;;;;6.85;3.38;;;13.60;96.10;;;;;;5052205;28;20028;-76
2022/04/29 10:02:47;;;;;;;7.45;3.78;;;13.70;95.70;;;;;;5038470;28;20064;-77
2022/04/29 10:05:14;;;;;;;10.15;3.85;;;13.60;94.80;;;;;;5041050;28;20074;-76
2022/04/29 10:07:41;;;;;;;5.97;2.90;;;13.60;94.90;;;;;;5033770;28;20036;-76
2022/04/29 10:10:11;;;;;;;5.95;3.03;;;13.80;95.20;;;;;;5051811;28;20025;-76
2022/04/29 10:12:37;;;;;;;9.82;3.33;;;14.00;94.90;;;;;;5051526;28;20392;-76
2022/04/29 10:15:06;;;;;;;14.20;3.85;;;13.90;93.60;;;;;;5051543;28;20021;-76
2022/04/29 10:21:19;;;;;;;7.75;3.20;;;14.00;93.00;;;;;;5051570;28;20167;-76
2022/04/29 10:23:15;;;;;;;8.32;2.67;;;14.00;92.80;;;;;;5034044;28;20048;-76
2022/04/29 10:25:46;;;;;;;8.35;3.67;;;14.10;92.40;;;;;;5051212;28;20086;-76
2022/04/29 10:28:16;;;;;;;5.97;3.00;;;14.20;91.90;;;;;;5051577;28;20032;-76
2022/04/29 10:30:42;;;;;;;11.32;3.55;;;14.30;91.70;;;;;;5050961;28;20418;-76
2022/04/29 10:33:10;;;;;;;7.82;3.63;;;14.20;91.60;;;;;;5047404;28;20108;-76
2022/04/29 10:35:49;;;;;;;11.02;4.25;;;14.20;92.00;;;;;;5033406;28;20036;-76
2022/04/29 10:38:31;;;;;;;9.57;3.60;;;14.40;92.10;;;;;;5051504;28;20444;-76
2022/04/29 10:41:06;;;;;;;8.73;3.88;;;14.50;91.80;;;;;;5051168;28;20442;-76
2022/04/29 10:43:53;;;;;;;10.32;4.82;;;14.50;91.50;;;;;;5051619;28;20036;-76
2022/04/29 10:46:22;;;;;;;5.63;4.00;;;14.40;91.90;;;;;;5043891;28;20047;-76
2022/04/29 10:48:52;;;;;;;9.45;4.63;;;14.50;92.20;;;;;;5031404;28;20023;-76
2022/04/29 10:51:46;;;;;;;9.65;4.85;;;14.60;92.20;;;;;;5031882;28;20481;-76
2022/04/29 10:54:12;;;;;;;13.02;4.45;;;14.70;92.00;;;;;;5045159;28;20027;-76
2022/04/29 10:56:38;;;;;;;10.25;4.57;;;14.70;92.10;;;;;;5051112;28;20029;-76
2022/04/29 10:59:04;;;;;;;11.52;4.78;;;14.70;92.10;;;;;;5051095;28;20079;-76
2022/04/29 11:01:34;;;;;;;11.00;5.00;;;14.70;92.00;;;;;;5050817;28;20547;-76
2022/04/29 11:04:07;;;;;;;9.05;4.50;;;14.70;91.70;;;;;;5051005;28;20017;-76
2022/04/29 11:06:52;;;;;;;12.38;4.82;;;14.70;91.60;;;;;;5051300;28;20037;-76
2022/04/29 11:09:30;;;;;;;12.32;5.18;;;14.70;91.70;;;;;;5051259;28;20112;-76
2022/04/29 11:11:58;;;;;;;9.95;5.18;;;14.80;91.90;;;;;;5050730;28;20106;-76
2022/04/29 11:14:24;;;;;;;15.13;6.15;;;14.80;91.60;;;;;;5051139;28;20082;-76
2022/04/29 11:17:11;;;;;;;11.82;5.07;;;14.70;91.70;;;;;;5050165;28;20503;-76
2022/04/29 11:19:48;;;;;;;12.48;5.55;;;14.70;91.60;;;;;;5050967;28;20048;-76
2022/04/29 11:25:06;;;;;;;9.75;5.28;;;14.70;91.60;;;;;;5051114;28;20156;-76
2022/04/29 11:27:37;;;;;;;9.77;5.28;;;14.60;91.70;;;;;;5050968;28;20497;-76
2022/04/29 11:30:03;;;;;;;8.23;4.93;;;14.60;92.00;;;;;;5049613;28;20040;-76
2022/04/29 11:32:30;;;;;;;14.35;5.18;;;14.70;91.80;;;;;;5051011;28;20094;-76
2022/04/29 11:34:57;;;;;;;10.07;4.50;;;14.90;91.70;;;;;;5050842;28;20389;-76
2022/04/29 11:37:24;;;;;;;7.82;4.80;;;15.00;91.60;;;;;;5051013;28;20024;-76
2022/04/29 11:39:51;;;;;;;9.00;4.88;;;14.90;91.40;;;;;;5050487;28;20469;-76
2022/04/29 11:42:18;;;;;;;10.95;4.95;;;15.00;91.60;;;;;;5051264;28;20480;-76
2022/04/29 11:44:45;;;;;;;8.52;5.15;;;15.10;91.40;;;;;;5049479;28;20550;-76
2022/04/29 11:47:11;;;;;;;10.00;3.92;;;15.20;91.30;;;;;;5052183;28;20037;-76
2022/04/29 11:49:37;;;;;;;9.85;4.03;;;15.30;91.00;;;;;;5054616;28;20021;-76
2022/04/29 11:52:22;;;;;;;13.40;5.95;;;15.30;90.50;;;;;;5054508;28;20129;-76
2022/04/29 11:54:56;;;;;;;9.25;4.63;;;15.30;90.20;;;;;;5054105;28;20060;-76
2022/04/29 11:57:23;;;;;;;8.18;4.10;;;15.20;90.50;;;;;;5054349;28;20075;-76
2022/04/29 11:59:50;;;;;;;8.95;4.78;;;15.20;90.70;;;;;;5052398;28;20370;-77
2022/04/29 12:02:23;;;;;;;11.32;4.55;;;15.40;90.30;;;;;;5054499;28;20025;-76
2022/04/29 12:05:07;;;;;;;9.68;4.75;;;15.50;89.60;;;;;;5054268;28;20021;-77
2022/04/29 12:07:43;;;;;;;8.68;4.97;;;15.40;89.30;;;;;;5054293;28;20059;-76
2022/04/29 12:10:28;;;;;;;15.68;4.68;;;15.50;89.10;;;;;;5036876;28;20100;-76
2022/04/29 12:12:58;;;;;;;8.35;4.05;;;15.50;89.50;;;;;;5053519;28;20029;-77
2022/04/29 12:15:37;;;;;;;8.75;3.97;;;15.70;90.00;;;;;;5054088;28;20037;-76
2022/04/29 12:18:10;;;;;;;9.65;4.57;;;15.90;89.90;;;;;;5053398;28;20020;-76
2022/04/29 12:20:39;;;;;;;11.05;4.95;;;15.90;88.80;;;;;;5032814;28;20524;-76
2022/04/29 12:23:10;;;;;;;5.22;3.80;;;16.10;87.90;;;;;;5034377;28;20504;-76
2022/04/29 12:25:45;;;;;;;9.90;3.83;;;16.10;86.60;;;;;;5034200;28;20034;-77
2022/04/29 12:28:13;;;;;;;7.95;3.92;;;16.10;86.60;;;;;;5033564;28;20040;-76
2022/04/29 12:36:57;;;;;;;10.40;4.97;;;15.90;85.20;;;;;;5034267;28;20036;-76
2022/04/29 12:39:27;;;;;;;11.65;4.60;;;16.00;85.60;;;;;;5033888;28;20025;-76
2022/04/29 12:42:03;;;;;;;8.88;4.20;;;16.30;84.80;;;;;;5032830;28;20433;-77
2022/04/29 12:45:08;;;;;;;11.25;4.68;;;16.40;83.50;;;;;;5033492;28;20029;-76
2022/04/29 12:47:46;;;;;;;11.93;4.05;;;16.40;82.50;;;;;;5033971;28;20172;-76
2022/04/29 12:50:31;;;;;;;9.52;4.30;;;16.40;82.30;;;;;;5033784;28;20103;-76
2022/04/29 12:53:10;;;;;;;10.20;4.53;;;16.60;82.10;;;;;;5033295;28;20038;-76
2022/04/29 12:55:43;;;;;;;8.60;4.30;;;16.60;80.10;;;;;;5033026;28;20067;-76
2022/04/29 12:58:19;;;;;;;8.85;3.58;;;16.40;79.80;;;;;;5032211;28;20470;-76
2022/04/29 13:00:59;;;;;;;8.63;4.53;;;16.40;80.10;;;;;;5013500;28;20453;-76
2022/04/29 13:03:26;;;;;;;9.10;4.40;;;16.30;79.50;;;;;;5013651;28;20466;-77
2022/04/29 13:05:52;;;;;;;8.70;4.35;;;16.20;79.90;;;;;;5013183;28;20548;-76
2022/04/29 13:08:18;;;;;;;8.77;3.72;;;16.10;79.50;;;;;;5017704;28;20117;-76
2022/04/29 13:10:49;;;;;;;8.80;4.45;;;16.10;79.80;;;;;;5032525;28;20419;-77
2022/04/29 13:13:15;;;;;;;9.20;4.32;;;16.10;80.80;;;;;;5033130;28;20021;-76
2022/04/29 13:15:41;;;;;;;10.35;4.45;;;16.00;80.10;;;;;;5032826;28;20026;-76